createdAt,value
2022-11-08T00:02:22.403Z,5.50
2022-11-08T00:04:49.322Z,5.80
2022-11-08T00:07:34.723Z,5.60
2022-11-08T00:10:19.922Z,5.90
2022-11-08T00:13:05.204Z,5.70
2022-11-08T00:15:38.771Z,7.00
2022-11-08T00:18:06.530Z,6.60
2022-11-08T00:20:33.507Z,5.80
2022-11-08T00:23:00.326Z,6.00
2022-11-08T00:25:27.464Z,3.40
2022-11-08T00:27:54.246Z,5.70
2022-11-08T00:30:21.093Z,6.50
2022-11-08T00:32:47.949Z,5.80
2022-11-08T00:35:14.812Z,5.60
2022-11-08T00:37:41.642Z,5.80
2022-11-08T00:40:08.694Z,5.80
2022-11-08T00:42:35.508Z,5.60
2022-11-08T00:45:02.302Z,5.80
2022-11-08T00:47:29.120Z,5.70
2022-11-08T00:49:55.894Z,5.60
2022-11-08T00:52:25.724Z,5.80
2022-11-08T00:54:52.562Z,5.70
2022-11-08T00:57:27.481Z,5.90
2022-11-08T01:00:08.210Z,5.60
2022-11-08T01:02:35.936Z,5.80
2022-11-08T01:05:02.768Z,5.70
2022-11-08T01:07:29.616Z,5.70
2022-11-08T01:09:56.402Z,5.70
2022-11-08T01:12:23.170Z,5.70
2022-11-08T01:14:50.075Z,5.50
2022-11-08T01:17:16.848Z,5.50
2022-11-08T01:19:43.641Z,5.50
2022-11-08T01:22:10.463Z,5.60
2022-11-08T01:24:37.252Z,5.50
2022-11-08T01:27:04.101Z,5.70
2022-11-08T01:29:30.941Z,5.50
2022-11-08T01:32:02.201Z,5.40
2022-11-08T01:34:28.976Z,5.50
2022-11-08T01:36:55.809Z,5.50
2022-11-08T01:39:22.577Z,5.60
2022-11-08T01:41:49.379Z,5.40
2022-11-08T01:44:16.591Z,5.30
2022-11-08T01:46:44.673Z,5.10
2022-11-08T01:49:30.371Z,4.80
2022-11-08T01:51:57.130Z,4.80
2022-11-08T01:54:26.394Z,4.60
2022-11-08T01:56:53.335Z,4.30
2022-11-08T01:59:20.123Z,4.50
2022-11-08T02:01:47.100Z,4.50
2022-11-08T02:04:14.007Z,4.70
2022-11-08T02:06:41.074Z,4.90
2022-11-08T02:09:08.642Z,5.10
2022-11-08T02:11:35.477Z,5.10
2022-11-08T02:14:02.722Z,4.80
2022-11-08T02:16:29.533Z,5.10
2022-11-08T02:18:56.353Z,5.00
2022-11-08T02:21:46.121Z,5.00
2022-11-08T02:24:13.175Z,5.00
2022-11-08T02:26:42.286Z,5.00
2022-11-08T02:29:27.949Z,4.50
2022-11-08T02:31:54.857Z,6.00
2022-11-08T02:34:23.016Z,5.20
2022-11-08T02:36:49.806Z,4.80
2022-11-08T02:39:16.625Z,4.70
2022-11-08T02:41:43.394Z,4.60
2022-11-08T02:44:10.181Z,4.40
2022-11-08T02:46:38.328Z,4.50
2022-11-08T02:49:05.098Z,4.60
2022-11-08T02:51:33.395Z,4.60
2022-11-08T02:54:00.238Z,4.70
2022-11-08T02:56:27.043Z,4.90
2022-11-08T02:58:53.820Z,4.60
2022-11-08T03:01:20.811Z,4.80
2022-11-08T03:03:47.612Z,4.70
2022-11-08T03:06:14.517Z,4.60
2022-11-08T03:08:41.329Z,4.20
2022-11-08T03:11:08.159Z,4.50
2022-11-08T03:13:35.213Z,4.10
2022-11-08T03:16:03.217Z,4.20
2022-11-08T03:18:30.533Z,4.10
2022-11-08T03:20:57.353Z,4.20
2022-11-08T03:23:24.185Z,3.80
2022-11-08T03:25:50.955Z,3.90
2022-11-08T03:28:22.523Z,3.90
2022-11-08T03:30:50.352Z,3.70
2022-11-08T03:33:17.129Z,3.80
2022-11-08T03:35:43.930Z,3.80
2022-11-08T03:38:10.748Z,3.80
2022-11-08T03:40:37.552Z,3.90
2022-11-08T03:43:04.334Z,4.10
2022-11-08T03:45:32.173Z,4.20
2022-11-08T03:48:01.056Z,4.20
2022-11-08T03:50:27.898Z,4.20
2022-11-08T03:52:55.374Z,4.40
2022-11-08T03:55:27.964Z,4.60
2022-11-08T03:57:54.753Z,4.50
2022-11-08T04:00:22.299Z,4.80
2022-11-08T04:02:49.231Z,4.90
2022-11-08T04:05:16.117Z,4.90
2022-11-08T04:07:43.335Z,4.70
2022-11-08T04:10:10.501Z,4.70
2022-11-08T04:13:01.895Z,5.30
2022-11-08T04:15:29.367Z,4.90
2022-11-08T04:18:14.677Z,5.00
2022-11-08T04:21:00.596Z,5.20
2022-11-08T04:23:27.674Z,5.00
2022-11-08T04:25:55.485Z,5.90
2022-11-08T04:28:29.259Z,5.40
2022-11-08T04:30:56.591Z,5.00
2022-11-08T04:33:23.581Z,5.30
2022-11-08T04:35:50.478Z,5.10
2022-11-08T04:38:17.687Z,5.30
2022-11-08T04:40:44.781Z,5.40
2022-11-08T04:43:11.642Z,5.50
2022-11-08T04:45:38.634Z,5.40
2022-11-08T04:48:05.520Z,5.30
2022-11-08T04:50:32.354Z,5.40
2022-11-08T04:52:59.243Z,5.30
2022-11-08T04:55:26.002Z,5.20
2022-11-08T04:57:53.299Z,5.50
2022-11-08T05:00:20.150Z,5.50
2022-11-08T05:02:47.025Z,5.50
2022-11-08T05:05:13.839Z,5.60
2022-11-08T05:07:41.149Z,5.60
2022-11-08T05:10:08.125Z,5.70
2022-11-08T05:12:34.944Z,5.60
2022-11-08T05:15:01.763Z,5.60
2022-11-08T05:17:28.574Z,5.70
2022-11-08T05:20:14.111Z,5.70
2022-11-08T05:23:00.686Z,4.10
2022-11-08T05:25:29.150Z,5.60
2022-11-08T05:27:55.944Z,5.70
2022-11-08T05:30:22.741Z,5.70
2022-11-08T05:32:50.825Z,5.60
2022-11-08T05:35:22.820Z,5.50
2022-11-08T05:37:53.104Z,5.80
2022-11-08T05:40:19.917Z,5.50
2022-11-08T05:42:47.198Z,5.60
2022-11-08T05:45:14.079Z,5.50
2022-11-08T05:47:44.017Z,5.40
2022-11-08T05:50:23.643Z,5.60
2022-11-08T05:53:19.524Z,5.70
2022-11-08T05:58:39.753Z,5.70
2022-11-08T06:01:17.065Z,5.70
2022-11-08T06:04:24.210Z,5.80
2022-11-08T06:07:05.777Z,5.60
2022-11-08T06:16:03.535Z,5.90
2022-11-08T06:18:30.557Z,5.90
2022-11-08T06:21:01.584Z,5.90
2022-11-08T06:23:43.626Z,6.00
2022-11-08T06:26:10.628Z,5.90
2022-11-08T06:29:18.719Z,5.90
2022-11-08T06:31:48.840Z,5.90
2022-11-08T06:37:21.274Z,6.00
2022-11-08T06:40:08.987Z,6.00
2022-11-08T06:42:35.871Z,6.00
2022-11-08T06:45:02.637Z,6.30
2022-11-08T06:47:29.673Z,5.80
2022-11-08T06:49:59.522Z,5.90
2022-11-08T06:58:36.469Z,5.90
2022-11-08T07:06:37.347Z,6.10
2022-11-08T07:12:40.104Z,6.30
2022-11-08T07:15:07.086Z,6.20
2022-11-08T07:17:38.517Z,6.20
2022-11-08T07:20:06.138Z,6.10
2022-11-08T07:22:32.966Z,6.30
2022-11-08T07:24:59.979Z,6.40
2022-11-08T07:27:28.992Z,6.30
2022-11-08T07:29:56.343Z,6.40
2022-11-08T07:32:27.575Z,6.90
2022-11-08T07:34:57.137Z,7.20
2022-11-08T07:37:24.748Z,6.90
2022-11-08T07:39:51.768Z,6.70
2022-11-08T07:51:05.543Z,7.00
2022-11-08T09:48:08.793Z,8.70
2022-11-08T10:30:14.696Z,8.90
2022-11-08T10:32:41.688Z,9.10
2022-11-08T10:55:07.632Z,9.50
2022-11-08T11:01:20.241Z,9.40
2022-11-08T11:03:47.404Z,9.50
2022-11-08T11:06:24.688Z,9.50
2022-11-08T11:08:54.049Z,9.50
2022-11-08T11:11:33.256Z,9.40
2022-11-08T11:14:16.266Z,9.50
2022-11-08T11:16:48.584Z,9.60
2022-11-08T11:19:15.499Z,9.50
2022-11-08T11:21:42.361Z,9.60
2022-11-08T11:24:16.607Z,9.60
2022-11-08T11:26:46.237Z,9.80
2022-11-08T11:29:13.031Z,9.90
2022-11-08T11:31:43.290Z,9.70
2022-11-08T11:34:19.163Z,9.70
2022-11-08T11:36:47.945Z,9.80
2022-11-08T11:39:16.627Z,9.80
2022-11-08T11:41:44.864Z,9.80
2022-11-08T11:44:22.110Z,10.00
2022-11-08T11:46:55.090Z,10.10
2022-11-08T11:49:21.915Z,10.10
2022-11-08T11:51:51.516Z,10.10
2022-11-08T11:54:18.401Z,10.10
2022-11-08T11:56:57.768Z,10.20
2022-11-08T11:59:33.797Z,10.40
2022-11-08T12:02:03.872Z,10.50
2022-11-08T12:04:41.859Z,10.40
2022-11-08T12:07:15.122Z,10.50
2022-11-08T12:09:42.240Z,10.20
2022-11-08T12:12:18.181Z,10.70
2022-11-08T12:14:49.151Z,10.60
2022-11-08T12:17:19.156Z,10.70
2022-11-08T12:20:04.633Z,10.60
2022-11-08T12:22:47.724Z,10.60
2022-11-08T12:25:23.498Z,10.70
2022-11-08T12:27:52.559Z,10.90
2022-11-08T12:30:26.347Z,10.90
2022-11-08T12:32:59.364Z,10.70
2022-11-08T12:35:29.584Z,10.70
2022-11-08T12:38:02.498Z,10.60
2022-11-08T12:40:43.327Z,10.90
2022-11-08T12:43:30.366Z,10.90
2022-11-08T12:46:03.795Z,10.80
2022-11-08T12:48:39.915Z,10.90
2022-11-08T12:51:27.007Z,10.80
2022-11-08T12:53:56.871Z,12.10
2022-11-08T12:56:43.271Z,10.70
2022-11-08T12:59:28.930Z,10.80
2022-11-08T13:01:55.930Z,10.60
2022-11-08T13:04:32.209Z,10.70
2022-11-08T13:07:25.454Z,10.80
2022-11-08T13:09:52.782Z,10.70
2022-11-08T13:12:26.092Z,10.80
2022-11-08T13:14:52.959Z,10.60
2022-11-08T13:48:24.356Z,10.30
2022-11-08T13:50:52.613Z,10.50
2022-11-08T13:53:19.571Z,10.50
2022-11-08T13:55:59.235Z,10.20
2022-11-08T13:58:29.229Z,10.20
2022-11-08T14:00:56.127Z,10.30
2022-11-08T14:03:35.134Z,10.50
2022-11-08T14:06:04.945Z,10.40
2022-11-08T14:08:52.001Z,10.10
2022-11-08T14:11:25.069Z,9.90
2022-11-08T14:14:03.513Z,9.70
2022-11-08T14:16:31.859Z,9.50
2022-11-08T14:19:16.589Z,9.50
2022-11-08T14:21:47.869Z,9.50
2022-11-08T14:24:19.205Z,9.40
2022-11-08T14:26:48.167Z,9.70
2022-11-08T14:29:16.454Z,9.40
2022-11-08T14:31:43.329Z,9.20
2022-11-08T14:34:26.517Z,9.20
2022-11-08T14:36:56.000Z,9.00
2022-11-08T14:45:45.925Z,8.30
2022-11-08T16:10:38.310Z,9.20
2022-11-08T16:40:24.274Z,6.10
2022-11-08T16:42:51.965Z,8.50
2022-11-08T16:45:58.340Z,8.40
2022-11-08T16:48:46.298Z,8.70
2022-11-08T16:51:17.431Z,9.50
2022-11-08T16:56:45.588Z,8.40
2022-11-08T16:59:12.537Z,8.60
2022-11-08T17:10:30.549Z,9.00
2022-11-08T17:16:34.544Z,10.00
2022-11-08T17:22:38.251Z,8.30
2022-11-08T17:25:11.485Z,8.40
2022-11-08T17:27:54.783Z,9.30
2022-11-08T17:30:26.482Z,9.10
2022-11-08T17:32:54.765Z,8.40
2022-11-08T17:35:22.714Z,8.80
2022-11-08T17:37:49.523Z,7.50
2022-11-08T17:40:16.584Z,8.40
2022-11-08T17:42:43.819Z,8.40
2022-11-08T17:45:11.014Z,8.40
2022-11-08T17:47:40.982Z,8.30
2022-11-08T17:50:10.112Z,9.10
2022-11-08T17:52:39.413Z,8.50
2022-11-08T17:55:06.520Z,8.30
2022-11-08T17:57:33.447Z,8.50
2022-11-08T18:00:00.436Z,8.40
2022-11-08T18:02:28.183Z,8.40
2022-11-08T18:04:57.226Z,8.40
2022-11-08T18:07:24.823Z,8.50
2022-11-08T18:09:52.389Z,8.40
2022-11-08T18:12:19.214Z,8.30
2022-11-08T18:14:46.021Z,8.40
2022-11-08T18:17:12.806Z,8.40
2022-11-08T18:19:39.578Z,8.40
2022-11-08T18:22:13.831Z,8.40
2022-11-08T18:24:47.628Z,8.40
2022-11-08T18:27:16.873Z,8.40
2022-11-08T18:29:44.933Z,8.40
2022-11-08T18:32:11.713Z,8.40
2022-11-08T18:34:38.573Z,8.50
2022-11-08T18:37:05.346Z,8.40
2022-11-08T18:39:33.557Z,8.60
2022-11-08T18:42:02.326Z,8.40
2022-11-08T18:44:49.435Z,8.50
2022-11-08T18:47:20.042Z,8.30
2022-11-08T18:49:46.904Z,8.50
2022-11-08T18:52:13.924Z,8.50
2022-11-08T18:57:16.164Z,8.50
2022-11-08T19:00:11.297Z,8.40
2022-11-08T19:02:39.706Z,9.00
2022-11-08T19:05:07.187Z,8.50
2022-11-08T19:07:35.367Z,8.70
2022-11-08T19:10:03.358Z,8.60
2022-11-08T19:15:56.562Z,8.80
2022-11-08T19:18:39.798Z,8.60
2022-11-08T19:24:54.246Z,9.10
2022-11-08T19:27:21.381Z,8.70
2022-11-08T19:29:48.982Z,8.60
2022-11-08T19:32:16.431Z,9.10
2022-11-08T19:34:46.936Z,8.70
2022-11-08T19:37:40.377Z,8.90
2022-11-08T19:40:07.853Z,8.90
2022-11-08T19:42:34.803Z,8.90
2022-11-08T19:45:01.885Z,8.80
2022-11-08T19:47:28.693Z,8.70
2022-11-08T19:49:55.467Z,8.80
2022-11-08T19:52:22.293Z,8.80
2022-11-08T19:54:50.348Z,8.80
2022-11-08T19:57:17.169Z,8.70
2022-11-08T19:59:46.027Z,8.70
2022-11-08T20:02:12.946Z,8.60
2022-11-08T20:04:40.031Z,8.60
2022-11-08T20:07:06.842Z,8.50
2022-11-08T20:09:36.293Z,8.80
2022-11-08T20:14:48.746Z,8.60
2022-11-08T20:17:16.373Z,8.70
2022-11-08T20:19:43.201Z,8.70
2022-11-08T20:22:10.011Z,8.60
2022-11-08T20:24:36.807Z,8.70
2022-11-08T20:27:03.616Z,8.60
2022-11-08T20:29:30.439Z,8.80
2022-11-08T20:31:57.196Z,8.90
2022-11-08T20:34:23.961Z,8.70
2022-11-08T20:36:50.805Z,8.70
2022-11-08T20:39:17.707Z,8.60
2022-11-08T20:41:44.523Z,8.70
2022-11-08T20:44:11.556Z,8.60
2022-11-08T20:46:38.427Z,8.60
2022-11-08T20:49:05.251Z,8.90
2022-11-08T20:51:32.172Z,8.70
2022-11-08T20:53:59.300Z,8.80
2022-11-08T20:56:26.280Z,8.70
2022-11-08T20:58:53.626Z,8.70
2022-11-08T21:01:21.319Z,8.70
2022-11-08T21:03:48.621Z,8.70
2022-11-08T21:06:16.488Z,8.70
2022-11-08T21:08:58.995Z,8.90
2022-11-08T21:11:34.801Z,8.70
2022-11-08T21:14:01.956Z,8.90
2022-11-08T21:16:30.869Z,8.70
2022-11-08T21:19:01.533Z,8.90
2022-11-08T21:21:33.870Z,8.80
2022-11-08T21:24:00.640Z,8.80
2022-11-08T21:26:28.878Z,8.80
2022-11-08T21:28:55.704Z,8.80
2022-11-08T21:31:22.935Z,8.90
2022-11-08T21:33:50.307Z,8.80
2022-11-08T21:36:18.473Z,8.70
2022-11-08T21:38:45.737Z,8.70
2022-11-08T21:41:13.566Z,8.70
2022-11-08T21:43:43.436Z,8.80
2022-11-08T21:46:20.261Z,8.70
2022-11-08T21:48:47.330Z,8.70
2022-11-08T21:51:14.272Z,8.70
2022-11-08T21:53:52.419Z,8.90
2022-11-08T21:56:20.863Z,8.70
2022-11-08T21:58:47.743Z,8.70
2022-11-08T22:01:14.729Z,8.70
2022-11-08T22:03:41.641Z,8.80
2022-11-08T22:06:09.000Z,9.00
2022-11-08T22:08:36.022Z,8.70
2022-11-08T22:11:02.932Z,8.80
2022-11-08T22:13:29.794Z,8.90
2022-11-08T22:15:56.663Z,8.90
2022-11-08T22:18:36.910Z,8.70
2022-11-08T22:21:29.114Z,8.80
2022-11-08T22:23:56.129Z,8.70
2022-11-08T22:26:22.971Z,8.80
2022-11-08T22:28:50.060Z,8.90
2022-11-08T22:31:16.922Z,8.80
2022-11-08T22:33:43.801Z,8.80
2022-11-08T22:36:12.063Z,8.90
2022-11-08T22:38:38.978Z,8.80
2022-11-08T22:41:06.031Z,8.90
2022-11-08T22:43:33.576Z,8.80
2022-11-08T22:46:00.530Z,8.80
2022-11-08T22:48:27.445Z,8.90
2022-11-08T22:50:54.365Z,8.80
2022-11-08T22:53:21.611Z,9.10
2022-11-08T22:55:48.644Z,8.80
2022-11-08T22:58:15.518Z,8.80
2022-11-08T23:00:42.844Z,8.90
2022-11-08T23:03:09.760Z,9.20
2022-11-08T23:05:36.659Z,9.10
2022-11-08T23:08:03.557Z,8.90
2022-11-08T23:10:30.445Z,9.10
2022-11-08T23:13:16.263Z,9.00
2022-11-08T23:16:02.067Z,9.10
2022-11-08T23:18:28.977Z,8.90
2022-11-08T23:21:14.421Z,9.00
2022-11-08T23:24:00.240Z,9.00
2022-11-08T23:26:45.644Z,9.00
2022-11-08T23:29:31.249Z,8.80
2022-11-08T23:31:58.098Z,9.20
2022-11-08T23:34:24.949Z,9.00
2022-11-08T23:36:52.071Z,9.10
2022-11-08T23:39:19.154Z,8.90
2022-11-08T23:42:04.705Z,9.00
2022-11-08T23:44:31.590Z,8.90
2022-11-08T23:47:00.011Z,8.90
2022-11-08T23:49:27.441Z,8.90
2022-11-08T23:51:54.334Z,8.90
2022-11-08T23:54:21.420Z,8.90
2022-11-08T23:56:48.392Z,8.90
2022-11-08T23:59:15.472Z,9.20
